Time;durP1;ratioP1;P1;durP2;ratioP2;P2;SDS_P1;SDS_P2;PMS_P1;PMS_P2;Temp;Humidity;BMP_temperature;BMP_pressure;BME280_temperature;BME280_humidity;BME280_pressure;Samples;Min_cycle;Max_cycle;Signal;HPM_P1;HPM_P2
2023/01/05 00:01:30;;;;;;;;;;;;;;;8.63;82.86;99771.41;1671407;83;20348;-78
2023/01/05 00:03:57;;;;;;;;;;;;;;;8.63;82.92;99764.97;1671163;83;20320;-78
2023/01/05 00:06:23;;;;;;;;;;;;;;;8.63;82.89;99756.38;1670845;84;20221;-79
2023/01/05 00:08:49;;;;;;;;;;;;;;;8.63;82.93;99757.67;1669592;83;20232;-79
2023/01/05 00:22:37;;;;;;;;;;;;;;;8.65;82.99;99731.43;1670483;84;20216;-78
2023/01/05 00:25:05;;;;;;;;;;;;;;;8.66;83.11;99729.27;1672675;83;21163;-78
2023/01/05 00:27:32;;;;;;;;;;;;;;;8.65;83.00;99724.98;1676897;84;20224;-78
2023/01/05 00:29:59;;;;;;;;;;;;;;;8.64;83.12;99720.72;1667428;83;20209;-78
2023/01/05 00:32:26;;;;;;;;;;;;;;;8.65;83.11;99715.97;1674356;83;20207;-77
2023/01/05 00:34:54;;;;;;;;;;;;;;;8.66;83.42;99711.66;1671999;83;20189;-77
2023/01/05 00:37:23;;;;;;;;;;;;;;;8.65;83.15;99736.58;1674907;83;21197;-78
2023/01/05 00:39:50;;;;;;;;;;;;;;;8.66;83.20;99733.13;1667742;84;20678;-78
2023/01/05 00:42:16;;;;;;;;;;;;;;;8.66;83.21;99735.70;1663250;84;20203;-78
2023/01/05 00:44:42;;;;;;;;;;;;;;;8.66;83.12;99725.39;1668585;84;20194;-78
2023/01/05 00:47:09;;;;;;;;;;;;;;;8.64;83.30;99732.31;1663611;84;20194;-78
2023/01/05 00:49:35;;;;;;;;;;;;;;;8.65;83.34;99735.30;1666840;84;20985;-79
2023/01/05 00:52:01;;;;;;;;;;;;;;;8.65;83.22;99737.02;1664521;84;20198;-79
2023/01/05 00:54:27;;;;;;;;;;;;;;;8.64;83.29;99725.87;1668207;83;20212;-79
2023/01/05 00:56:54;;;;;;;;;;;;;;;8.63;83.17;99721.16;1670794;83;20214;-79
2023/01/05 00:59:20;;;;;;;;;;;;;;;8.62;83.46;99732.34;1664523;84;20186;-78
2023/01/05 01:01:47;;;;;;;;;;;;;;;8.60;83.45;99735.39;1609703;84;5000856;-79
2023/01/05 01:04:14;;;;;;;;;;;;;;;8.59;83.28;99732.41;1670040;84;20152;-79
2023/01/05 01:06:40;;;;;;;;;;;;;;;8.59;83.25;99734.14;1672318;82;20149;-79
2023/01/05 01:09:07;;;;;;;;;;;;;;;8.56;83.22;99724.75;1663506;84;20137;-79
2023/01/05 01:11:33;;;;;;;;;;;;;;;8.54;83.19;99711.05;1667575;84;20114;-78
2023/01/05 01:13:59;;;;;;;;;;;;;;;8.51;83.16;99717.56;1664217;84;20989;-78
2023/01/05 01:16:25;;;;;;;;;;;;;;;8.47;83.28;99724.95;1669732;84;20134;-78
2023/01/05 01:18:51;;;;;;;;;;;;;;;8.44;83.22;99736.61;1667490;84;20125;-78
2023/01/05 01:21:17;;;;;;;;;;;;;;;8.42;83.21;99744.80;1667700;84;20095;-78
2023/01/05 01:23:43;;;;;;;;;;;;;;;8.39;83.22;99742.30;1667359;84;20112;-79
2023/01/05 01:26:12;;;;;;;;;;;;;;;8.37;83.19;99736.33;1667090;84;21130;-78
2023/01/05 01:28:38;;;;;;;;;;;;;;;8.34;83.45;99727.81;1661888;84;20150;-78
2023/01/05 01:31:05;;;;;;;;;;;;;;;8.30;83.26;99716.73;1665197;84;20205;-78
2023/01/05 01:33:31;;;;;;;;;;;;;;;8.27;83.24;99720.22;1664525;84;20413;-79
2023/01/05 01:35:58;;;;;;;;;;;;;;;8.25;83.27;99715.53;1675810;84;20143;-78
2023/01/05 01:38:24;;;;;;;;;;;;;;;8.23;83.30;99712.58;1675844;84;21047;-78
2023/01/05 01:40:50;;;;;;;;;;;;;;;8.21;83.24;99712.61;1664546;84;20140;-79
2023/01/05 01:43:19;;;;;;;;;;;;;;;8.17;83.18;99714.00;1669355;83;20147;-78
2023/01/05 01:45:45;;;;;;;;;;;;;;;8.14;83.24;99721.78;1673576;83;20105;-78
2023/01/05 01:48:14;;;;;;;;;;;;;;;8.10;83.23;99724.86;1671061;83;20108;-78
2023/01/05 01:50:49;;;;;;;;;;;;;;;8.06;83.17;99723.23;1674190;84;21086;-78
2023/01/05 01:53:22;;;;;;;;;;;;;;;8.01;83.23;99716.47;1675290;83;20177;-78
2023/01/05 01:55:49;;;;;;;;;;;;;;;7.95;83.30;99714.42;1672879;83;20163;-78
2023/01/05 01:58:16;;;;;;;;;;;;;;;7.91;83.44;99719.22;1671667;83;20553;-78
2023/01/05 02:00:42;;;;;;;;;;;;;;;7.87;83.34;99712.44;1674484;83;20138;-78
2023/01/05 02:03:09;;;;;;;;;;;;;;;7.85;83.25;99715.48;1672569;83;21073;-78
2023/01/05 02:05:36;;;;;;;;;;;;;;;7.82;83.29;99711.68;1670903;84;20843;-78
2023/01/05 02:08:05;;;;;;;;;;;;;;;7.81;83.28;99713.84;1672373;84;20098;-78
2023/01/05 02:10:54;;;;;;;;;;;;;;;7.79;83.40;99718.20;1672621;83;20118;-78
2023/01/05 02:13:30;;;;;;;;;;;;;;;7.77;83.46;99713.52;1674312;83;20141;-78
2023/01/05 02:16:08;;;;;;;;;;;;;;;7.76;83.41;99713.11;1673573;83;21099;-78
2023/01/05 02:18:50;;;;;;;;;;;;;;;7.75;83.48;99724.28;1644454;83;20162;-78
2023/01/05 02:21:26;;;;;;;;;;;;;;;7.75;83.52;99717.00;1675027;84;20143;-78
2023/01/05 02:24:12;;;;;;;;;;;;;;;7.75;83.41;99714.43;1671684;83;20157;-78
2023/01/05 02:26:51;;;;;;;;;;;;;;;7.73;83.53;99708.03;1664220;84;20102;-78
2023/01/05 02:29:36;;;;;;;;;;;;;;;7.72;83.45;99701.18;1670617;83;20430;-78
2023/01/05 02:32:24;;;;;;;;;;;;;;;7.72;83.48;99704.19;1673223;83;20744;-77
2023/01/05 02:35:03;;;;;;;;;;;;;;;7.72;83.42;99697.77;1678847;84;20156;-77
2023/01/05 02:37:36;;;;;;;;;;;;;;;7.70;83.49;99694.37;1603540;88;20409;-77
2023/01/05 02:40:14;;;;;;;;;;;;;;;7.70;83.44;99698.23;1604533;88;20222;-77
2023/01/05 02:42:42;;;;;;;;;;;;;;;7.68;83.49;99704.69;1588750;88;21991;-77
2023/01/05 02:45:09;;;;;;;;;;;;;;;7.68;83.56;99703.84;1609366;87;20189;-77
2023/01/05 02:47:40;;;;;;;;;;;;;;;7.67;83.50;99705.56;1579156;88;20246;-77
2023/01/05 02:50:28;;;;;;;;;;;;;;;7.68;83.54;99706.41;1557842;90;20275;-77
2023/01/05 02:53:00;;;;;;;;;;;;;;;7.68;83.65;99702.12;1604923;87;20208;-78
2023/01/05 02:55:35;;;;;;;;;;;;;;;7.69;83.64;99696.09;1584354;88;21973;-78
2023/01/05 02:58:10;;;;;;;;;;;;;;;7.71;83.63;99708.93;1609290;87;20205;-78
2023/01/05 03:00:43;;;;;;;;;;;;;;;7.71;83.60;99705.07;1606375;87;20309;-78
2023/01/05 03:03:15;;;;;;;;;;;;;;;7.72;83.65;99700.33;1600273;87;20612;-78
2023/01/05 03:05:57;;;;;;;;;;;;;;;7.74;83.71;99706.30;1604540;88;20557;-78
2023/01/05 03:08:24;;;;;;;;;;;;;;;7.75;83.75;99708.00;1604666;87;21878;-78
2023/01/05 03:13:56;;;;;;;;;;;;;;;7.80;83.79;99695.89;1600291;85;20201;-78
2023/01/05 03:16:26;;;;;;;;;;;;;;;7.82;83.79;99701.82;1643298;85;20492;-78
2023/01/05 03:35:32;;;;;;;;;;;;;;;8.00;83.82;99700.62;1625129;86;21132;-78
2023/01/05 03:38:05;;;;;;;;;;;;;;;8.02;83.84;99684.70;1649898;84;20530;-78
2023/01/05 03:40:33;;;;;;;;;;;;;;;8.04;83.72;99685.08;1653169;84;20188;-78
2023/01/05 03:43:00;;;;;;;;;;;;;;;8.06;83.78;99687.62;1646623;84;20413;-78
2023/01/05 03:45:29;;;;;;;;;;;;;;;8.07;83.83;99679.86;1634896;85;20184;-78
2023/01/05 03:47:56;;;;;;;;;;;;;;;8.08;83.79;99693.14;1638426;85;21082;-78
2023/01/05 03:50:22;;;;;;;;;;;;;;;8.10;83.85;99688.81;1606818;87;20183;-78
2023/01/05 03:52:48;;;;;;;;;;;;;;;8.13;83.92;99695.19;1634109;86;20196;-78
2023/01/05 03:55:14;;;;;;;;;;;;;;;8.15;83.84;99688.72;1634337;85;20513;-78
2023/01/05 03:57:41;;;;;;;;;;;;;;;8.15;83.87;99688.72;1606035;87;20232;-78
2023/01/05 04:00:08;;;;;;;;;;;;;;;8.17;83.91;99689.53;1631227;86;21076;-78
2023/01/05 04:02:34;;;;;;;;;;;;;;;8.18;84.15;99686.08;1609359;88;20535;-78
2023/01/05 04:05:00;;;;;;;;;;;;;;;8.19;83.97;99692.92;1639427;85;20311;-78
2023/01/05 04:07:26;;;;;;;;;;;;;;;8.20;83.92;99697.20;1636314;86;20872;-78
2023/01/05 04:09:52;;;;;;;;;;;;;;;8.20;83.96;99683.88;1634981;85;20911;-78
2023/01/05 04:12:19;;;;;;;;;;;;;;;8.22;83.98;99689.84;1637604;85;21007;-78
2023/01/05 04:14:45;;;;;;;;;;;;;;;8.21;84.01;99687.30;1635847;87;20196;-78
2023/01/05 04:17:11;;;;;;;;;;;;;;;8.21;84.01;99684.73;1631814;85;20205;-78
2023/01/05 04:19:37;;;;;;;;;;;;;;;8.21;83.99;99680.42;1641800;84;20186;-78
2023/01/05 04:22:03;;;;;;;;;;;;;;;8.23;84.03;99683.81;1606435;87;20232;-78
2023/01/05 04:24:29;;;;;;;;;;;;;;;8.24;84.10;99693.67;1638459;85;21072;-78
2023/01/05 04:26:55;;;;;;;;;;;;;;;8.25;84.09;99690.22;1609690;87;20259;-78
2023/01/05 04:29:22;;;;;;;;;;;;;;;8.27;84.11;99688.46;1632737;85;20176;-78
2023/01/05 04:31:48;;;;;;;;;;;;;;;8.28;84.10;99683.72;1609688;87;20488;-77
2023/01/05 04:34:14;;;;;;;;;;;;;;;8.29;84.15;99693.14;1634187;85;20208;-77
2023/01/05 04:36:41;;;;;;;;;;;;;;;8.29;84.16;99682.84;1631400;85;21378;-77
2023/01/05 04:39:07;;;;;;;;;;;;;;;8.29;84.09;99680.27;1631207;86;20182;-77
2023/01/05 04:41:33;;;;;;;;;;;;;;;8.29;84.21;99680.27;1634470;85;20186;-78
2023/01/05 04:43:59;;;;;;;;;;;;;;;8.29;84.15;99677.25;1636143;85;20410;-78
2023/01/05 04:46:25;;;;;;;;;;;;;;;8.29;84.15;99683.69;1635579;85;20180;-78
2023/01/05 04:48:52;;;;;;;;;;;;;;;8.29;84.05;99683.69;1635891;85;21064;-79
2023/01/05 04:51:18;;;;;;;;;;;;;;;8.28;84.11;99674.70;1634039;85;20212;-78
2023/01/05 04:53:44;;;;;;;;;;;;;;;8.28;84.18;99679.41;1637482;85;20197;-79
2023/01/05 04:56:10;;;;;;;;;;;;;;;8.27;84.08;99686.73;1636380;85;20223;-79
2023/01/05 04:58:36;;;;;;;;;;;;;;;8.28;84.20;99688.43;1637073;85;20235;-79
2023/01/05 05:01:03;;;;;;;;;;;;;;;8.29;84.19;99693.14;1639639;85;21125;-79
2023/01/05 05:03:29;;;;;;;;;;;;;;;8.29;84.27;99687.55;1637253;86;20212;-79
2023/01/05 05:05:55;;;;;;;;;;;;;;;8.30;84.14;99693.55;1631938;85;20211;-79
2023/01/05 05:08:21;;;;;;;;;;;;;;;8.31;84.17;99691.38;1634602;86;20644;-79
2023/01/05 05:10:47;;;;;;;;;;;;;;;8.32;84.17;99690.47;1604868;87;20206;-79
2023/01/05 05:13:14;;;;;;;;;;;;;;;8.30;84.29;99685.38;1634480;85;21137;-79
2023/01/05 05:15:40;;;;;;;;;;;;;;;8.32;84.23;99689.65;1639470;85;20602;-83
2023/01/05 05:18:06;;;;;;;;;;;;;;;8.33;84.23;99690.91;1635991;85;20624;-80
2023/01/05 05:20:32;;;;;;;;;;;;;;;8.33;84.24;99693.92;1637847;85;20364;-79
2023/01/05 05:22:58;;;;;;;;;;;;;;;8.34;84.39;99689.18;1635341;86;20201;-79
2023/01/05 05:25:24;;;;;;;;;;;;;;;8.35;84.27;99688.30;1635382;85;22061;-79
2023/01/05 05:27:50;;;;;;;;;;;;;;;8.36;84.27;99699.86;1633791;85;20177;-79
2023/01/05 05:30:17;;;;;;;;;;;;;;;8.38;84.20;99708.40;1637118;85;20185;-79
2023/01/05 05:32:43;;;;;;;;;;;;;;;8.39;84.17;99705.38;1640397;85;20489;-78
2023/01/05 05:35:09;;;;;;;;;;;;;;;8.40;84.22;99710.50;1606052;88;20240;-79
2023/01/05 05:37:35;;;;;;;;;;;;;;;8.41;84.10;99720.37;1636826;86;21055;-79
2023/01/05 05:40:01;;;;;;;;;;;;;;;8.40;84.10;99725.95;1644479;85;21123;-79
2023/01/05 05:42:28;;;;;;;;;;;;;;;8.40;84.05;99725.95;1637730;85;20493;-79
2023/01/05 05:44:54;;;;;;;;;;;;;;;8.39;84.06;99733.28;1633960;85;20601;-77
2023/01/05 05:47:20;;;;;;;;;;;;;;;8.38;84.08;99734.16;1639512;85;20212;-78
2023/01/05 05:49:46;;;;;;;;;;;;;;;8.39;84.05;99732.43;1639842;85;21146;-78
2023/01/05 05:52:12;;;;;;;;;;;;;;;8.38;84.00;99737.17;1632746;86;20200;-78
2023/01/05 05:54:38;;;;;;;;;;;;;;;8.36;84.01;99732.05;1632100;85;20236;-78
2023/01/05 05:57:04;;;;;;;;;;;;;;;8.35;83.96;99744.52;1633704;85;20249;-78
2023/01/05 05:59:31;;;;;;;;;;;;;;;8.34;83.93;99735.10;1637018;85;20205;-78
2023/01/05 06:01:57;;;;;;;;;;;;;;;8.33;83.93;99759.60;1635402;85;21870;-78
2023/01/05 06:04:23;;;;;;;;;;;;;;;8.30;83.89;99748.48;1632238;85;20200;-78
2023/01/05 06:06:49;;;;;;;;;;;;;;;8.29;83.87;99752.38;1636609;85;20424;-78
2023/01/05 06:09:15;;;;;;;;;;;;;;;8.27;83.85;99756.71;1632116;85;20655;-78
2023/01/05 06:11:41;;;;;;;;;;;;;;;8.24;83.80;99753.76;1632871;86;20635;-78
2023/01/05 06:14:07;;;;;;;;;;;;;;;8.22;83.80;99761.95;1606069;87;21848;-78
2023/01/05 06:16:34;;;;;;;;;;;;;;;8.19;83.76;99759.44;1634612;85;20205;-79
2023/01/05 06:19:00;;;;;;;;;;;;;;;8.17;83.78;99757.77;1637245;85;20227;-79
2023/01/05 06:21:26;;;;;;;;;;;;;;;8.15;83.78;99766.81;1634541;85;20223;-79
2023/01/05 06:23:52;;;;;;;;;;;;;;;8.14;83.77;99764.27;1632981;85;20170;-79
2023/01/05 06:26:18;;;;;;;;;;;;;;;8.11;83.79;99771.62;1634054;85;21074;-79
2023/01/05 06:28:44;;;;;;;;;;;;;;;8.09;83.73;99760.50;1612160;87;20200;-79
2023/01/05 06:31:14;;;;;;;;;;;;;;;8.09;83.74;99768.66;1640449;85;20210;-84
2023/01/05 06:33:40;;;;;;;;;;;;;;;8.09;83.73;99775.09;1631756;85;20574;-78
2023/01/05 06:36:07;;;;;;;;;;;;;;;8.07;83.68;99775.13;1644763;85;20226;-83
2023/01/05 06:38:34;;;;;;;;;;;;;;;8.05;83.65;99764.45;1606495;87;21841;-81
2023/01/05 06:41:00;;;;;;;;;;;;;;;8.03;83.60;99768.34;1638010;85;20616;-78
2023/01/05 06:43:26;;;;;;;;;;;;;;;8.03;83.55;99773.92;1542855;86;5000936;-77
2023/01/05 06:45:52;;;;;;;;;;;;;;;8.02;83.54;99768.37;1597593;87;20379;-77
2023/01/05 06:48:18;;;;;;;;;;;;;;;7.99;83.49;99779.57;1628980;87;20124;-78
2023/01/05 06:50:44;;;;;;;;;;;;;;;7.96;83.46;99774.48;1620751;86;21066;-78
2023/01/05 06:53:11;;;;;;;;;;;;;;;7.92;83.48;99778.84;1630109;87;20332;-74
2023/01/05 06:55:37;;;;;;;;;;;;;;;7.89;83.46;99781.91;1631833;85;20502;-74
2023/01/05 06:58:03;;;;;;;;;;;;;;;7.86;83.49;99782.81;1633446;85;20210;-75
2023/01/05 07:00:29;;;;;;;;;;;;;;;7.84;83.54;99791.00;1634973;87;20635;-76
2023/01/05 07:02:55;;;;;;;;;;;;;;;7.83;83.59;99785.88;1633344;86;20977;-74
2023/01/05 07:05:23;;;;;;;;;;;;;;;7.82;83.61;99799.62;1623855;86;20243;-74
2023/01/05 07:07:50;;;;;;;;;;;;;;;7.81;83.60;99803.07;1631777;85;20364;-77
2023/01/05 07:10:16;;;;;;;;;;;;;;;7.79;83.62;99806.14;1634057;85;20515;-78
2023/01/05 07:12:42;;;;;;;;;;;;;;;7.76;83.63;99808.33;1618609;86;20366;-77
2023/01/05 07:15:09;;;;;;;;;;;;;;;7.76;83.64;99816.48;1630411;85;21062;-76
2023/01/05 07:17:36;;;;;;;;;;;;;;;7.73;83.61;99812.67;1624903;86;20142;-76
2023/01/05 07:20:05;;;;;;;;;;;;;;;7.71;83.55;99815.72;1634819;86;20153;-76
2023/01/05 07:22:31;;;;;;;;;;;;;;;7.69;83.59;99820.89;1634355;87;20194;-76
2023/01/05 07:24:57;;;;;;;;;;;;;;;7.66;83.51;99824.80;1632488;85;20477;-75
2023/01/05 07:27:23;;;;;;;;;;;;;;;7.63;83.49;99825.70;1628509;85;21076;-76
2023/01/05 07:29:50;;;;;;;;;;;;;;;7.62;83.46;99829.14;1621484;86;20166;-76
2023/01/05 07:32:16;;;;;;;;;;;;;;;7.62;83.44;99827.86;1634298;86;20189;-77
2023/01/05 07:34:42;;;;;;;;;;;;;;;7.62;83.40;99838.59;1635293;85;20157;-77
2023/01/05 07:37:09;;;;;;;;;;;;;;;7.63;83.38;99831.28;1636935;85;20128;-78
2023/01/05 07:39:36;;;;;;;;;;;;;;;7.63;83.31;99840.28;1615930;86;21852;-78
2023/01/05 07:42:02;;;;;;;;;;;;;;;7.64;83.30;99838.12;1631413;87;20192;-77
2023/01/05 07:44:28;;;;;;;;;;;;;;;7.63;83.26;99842.86;1626568;86;20552;-78
2023/01/05 07:46:54;;;;;;;;;;;;;;;7.63;83.25;99856.58;1657143;84;20826;-78
2023/01/05 07:49:20;;;;;;;;;;;;;;;7.62;83.13;99847.59;1621472;86;20543;-77
2023/01/05 07:51:46;;;;;;;;;;;;;;;7.62;83.16;99848.44;1647178;85;21643;-77
2023/01/05 07:54:13;;;;;;;;;;;;;;;7.62;83.07;99851.02;1648780;84;20175;-77
2023/01/05 07:56:39;;;;;;;;;;;;;;;7.62;83.08;99855.31;1646454;85;20417;-77
2023/01/05 07:59:05;;;;;;;;;;;;;;;7.63;83.04;99860.88;1632711;86;20557;-77
2023/01/05 08:01:31;;;;;;;;;;;;;;;7.68;83.05;99864.22;1677690;84;20184;-78
2023/01/05 08:03:57;;;;;;;;;;;;;;;7.72;83.04;99864.58;1615643;86;21141;-77
2023/01/05 08:06:24;;;;;;;;;;;;;;;7.74;82.93;99869.27;1645790;84;20172;-77
2023/01/05 08:08:50;;;;;;;;;;;;;;;7.76;82.95;99868.80;1647481;84;20144;-76
2023/01/05 08:11:18;;;;;;;;;;;;;;;7.78;82.65;99872.20;1644831;85;20103;-77
2023/01/05 08:14:01;;;;;;;;;;;;;;;7.81;82.85;99871.27;1641515;85;20518;-77
2023/01/05 08:16:29;;;;;;;;;;;;;;;7.81;82.78;99878.55;1622191;86;21070;-78
2023/01/05 08:18:56;;;;;;;;;;;;;;;7.80;82.65;99876.86;1661260;84;20167;-78
2023/01/05 08:21:22;;;;;;;;;;;;;;;7.80;82.75;99888.44;1620879;86;20108;-77
2023/01/05 08:23:49;;;;;;;;;;;;;;;7.82;82.75;99885.40;1644552;85;20561;-77
2023/01/05 08:26:17;;;;;;;;;;;;;;;7.88;82.75;99886.59;1647859;85;20509;-77
2023/01/05 08:28:44;;;;;;;;;;;;;;;7.95;82.92;99884.32;1647651;85;21044;-73
2023/01/05 08:31:13;;;;;;;;;;;;;;;7.99;82.76;99883.83;1626837;86;20105;-74
2023/01/05 08:33:39;;;;;;;;;;;;;;;8.03;82.72;99880.77;1661251;84;20183;-73
2023/01/05 08:36:11;;;;;;;;;;;;;;;8.06;82.66;99891.86;1620551;86;20175;-73
2023/01/05 08:38:37;;;;;;;;;;;;;;;8.05;82.53;99887.59;1643399;85;20161;-74
2023/01/05 08:41:04;;;;;;;;;;;;;;;8.03;82.45;99888.49;1645058;85;21128;-74
2023/01/05 08:43:30;;;;;;;;;;;;;;;8.01;82.40;99894.11;1651831;85;20176;-73
2023/01/05 08:45:56;;;;;;;;;;;;;;;7.96;82.41;99883.45;1684801;84;20159;-73
2023/01/05 08:48:22;;;;;;;;;;;;;;;7.95;82.26;99892.48;1669483;83;20979;-73
2023/01/05 08:50:48;;;;;;;;;;;;;;;7.91;82.18;99885.25;1665478;83;20203;-73
2023/01/05 08:53:15;;;;;;;;;;;;;;;7.90;82.28;99900.28;1669018;84;21073;-73
2023/01/05 08:55:41;;;;;;;;;;;;;;;7.88;82.05;99909.75;1665596;84;21193;-74
2023/01/05 08:58:07;;;;;;;;;;;;;;;7.88;82.12;99899.89;1666476;83;20514;-74
2023/01/05 09:00:34;;;;;;;;;;;;;;;7.93;82.11;99917.41;1665794;84;20499;-73
2023/01/05 09:03:00;;;;;;;;;;;;;;;7.96;82.17;99900.18;1670774;83;20208;-73
2023/01/05 09:05:26;;;;;;;;;;;;;;;8.01;82.17;99917.28;1670497;83;21773;-73
2023/01/05 09:07:52;;;;;;;;;;;;;;;8.03;82.03;99906.52;1663765;84;20194;-73
2023/01/05 09:10:18;;;;;;;;;;;;;;;8.04;81.86;99905.64;1667658;84;20455;-73
2023/01/05 09:12:45;;;;;;;;;;;;;;;8.05;81.94;99917.20;1666025;84;20423;-74
2023/01/05 09:15:11;;;;;;;;;;;;;;;8.06;81.90;99915.47;1670075;83;20173;-74
2023/01/05 09:17:37;;;;;;;;;;;;;;;8.07;81.79;99919.31;1653821;85;22245;-74
2023/01/05 09:20:04;;;;;;;;;;;;;;;8.08;81.81;99927.45;1601892;84;5001269;-74
2023/01/05 09:22:31;;;;;;;;;;;;;;;8.09;81.91;99926.58;1647267;85;20200;-73
2023/01/05 09:24:57;;;;;;;;;;;;;;;8.10;81.88;99930.00;1669368;84;20465;-74
2023/01/05 09:27:23;;;;;;;;;;;;;;;8.11;81.89;99915.81;1671450;83;21043;-74
2023/01/05 09:29:49;;;;;;;;;;;;;;;8.11;81.81;99920.11;1672559;83;21673;-73
2023/01/05 09:32:15;;;;;;;;;;;;;;;8.12;81.83;99921.81;1677109;82;20200;-73
2023/01/05 09:34:42;;;;;;;;;;;;;;;8.13;81.79;99924.80;1669889;83;20204;-73
2023/01/05 09:37:08;;;;;;;;;;;;;;;8.14;81.79;99921.34;1668665;83;20191;-74
2023/01/05 09:39:34;;;;;;;;;;;;;;;8.15;81.57;99924.33;1669518;83;20192;-74
2023/01/05 09:42:02;;;;;;;;;;;;;;;8.16;81.55;99926.03;1670653;83;21789;-73
2023/01/05 09:44:38;;;;;;;;;;;;;;;8.17;81.53;99925.16;1670753;83;20206;-73
2023/01/05 09:47:13;;;;;;;;;;;;;;;8.19;81.57;99915.67;1673325;83;20202;-74
2023/01/05 09:49:40;;;;;;;;;;;;;;;8.20;81.44;99920.80;1670181;82;20237;-74
2023/01/05 09:52:09;;;;;;;;;;;;;;;8.20;81.43;99915.66;1671349;83;20475;-74
2023/01/05 09:54:37;;;;;;;;;;;;;;;8.19;81.16;99910.09;1669138;83;21082;-74
2023/01/05 09:57:05;;;;;;;;;;;;;;;8.19;81.28;99911.81;1671895;83;21097;-74
2023/01/05 09:59:35;;;;;;;;;;;;;;;8.19;81.24;99906.66;1668043;83;20532;-74
2023/01/05 10:02:04;;;;;;;;;;;;;;;8.17;81.05;99907.98;1666892;83;20465;-73
2023/01/05 10:04:31;;;;;;;;;;;;;;;8.19;81.02;99908.80;1669961;83;20206;-73
2023/01/05 10:07:03;;;;;;;;;;;;;;;8.20;81.09;99914.80;1669467;84;21149;-73
2023/01/05 10:09:37;;;;;;;;;;;;;;;8.23;81.28;99910.45;1666148;83;20293;-73
2023/01/05 10:15:01;;;;;;;;;;;;;;;8.45;81.09;99908.77;1669485;83;20190;-73
2023/01/05 10:17:30;;;;;;;;;;;;;;;8.57;80.91;99899.09;1667661;85;20337;-74
2023/01/05 10:19:57;;;;;;;;;;;;;;;8.67;81.00;99889.89;1669960;83;22301;-74
2023/01/05 10:23:00;;;;;;;;;;;;;;;8.74;80.37;99892.31;1679656;83;20426;-74
2023/01/05 10:25:33;;;;;;;;;;;;;;;8.79;80.76;99904.67;1669372;83;20185;-74
2023/01/05 10:28:02;;;;;;;;;;;;;;;8.82;80.70;99890.88;1668721;83;20748;-73
2023/01/05 10:30:55;;;;;;;;;;;;;;;8.82;80.84;99903.77;1653551;83;20302;-74
2023/01/05 10:33:48;;;;;;;;;;;;;;;8.82;80.49;99901.19;1662672;83;20515;-73
2023/01/05 10:36:36;;;;;;;;;;;;;;;8.81;80.57;99902.06;1644119;83;20916;-74
2023/01/05 10:39:15;;;;;;;;;;;;;;;8.76;79.92;99891.84;1673480;83;20212;-74
2023/01/05 10:42:03;;;;;;;;;;;;;;;8.71;80.18;99864.03;1627281;83;20185;-73
2023/01/05 10:44:38;;;;;;;;;;;;;;;8.70;80.42;99893.70;1667262;83;20201;-73
2023/01/05 10:47:09;;;;;;;;;;;;;;;8.68;80.20;99887.28;1669028;83;21717;-73
2023/01/05 10:49:37;;;;;;;;;;;;;;;8.65;80.37;99894.22;1662368;83;20836;-73
2023/01/05 10:52:03;;;;;;;;;;;;;;;8.62;80.37;99894.70;1670166;83;20119;-74
2023/01/05 10:54:53;;;;;;;;;;;;;;;8.60;80.39;99891.30;1651532;83;20433;-73
2023/01/05 10:57:34;;;;;;;;;;;;;;;8.59;80.36;99897.77;1654222;84;20195;-74
2023/01/05 11:00:12;;;;;;;;;;;;;;;8.57;80.34;99891.36;1637786;85;21700;-73
2023/01/05 11:02:41;;;;;;;;;;;;;;;8.54;80.18;99893.99;1651497;84;20256;-74
2023/01/05 11:05:22;;;;;;;;;;;;;;;8.53;79.98;99892.30;1634104;85;20640;-74
2023/01/05 11:07:55;;;;;;;;;;;;;;;8.52;80.21;99890.59;1620667;85;20751;-73
2023/01/05 11:10:33;;;;;;;;;;;;;;;8.51;80.04;99889.34;1631736;85;20357;-74
2023/01/05 11:13:03;;;;;;;;;;;;;;;8.51;80.23;99904.80;1634592;85;21136;-74
2023/01/05 11:15:31;;;;;;;;;;;;;;;8.49;80.17;99901.40;1630776;85;20317;-74
2023/01/05 11:17:58;;;;;;;;;;;;;;;8.47;80.15;99904.00;1630606;85;20165;-73
2023/01/05 11:20:26;;;;;;;;;;;;;;;8.46;80.22;99907.45;1632314;85;20186;-74
2023/01/05 11:22:53;;;;;;;;;;;;;;;8.47;80.20;99906.58;1634356;85;20558;-73
2023/01/05 11:25:31;;;;;;;;;;;;;;;8.44;80.24;99915.66;1634678;85;21114;-73
2023/01/05 11:28:14;;;;;;;;;;;;;;;8.43;80.23;99911.38;1634495;85;20535;-74
2023/01/05 11:30:58;;;;;;;;;;;;;;;8.42;80.18;99915.27;1637371;86;20451;-73
2023/01/05 11:33:27;;;;;;;;;;;;;;;8.41;80.20;99904.12;1630728;85;20786;-73
2023/01/05 11:35:54;;;;;;;;;;;;;;;8.41;80.33;99916.15;1635903;85;20745;-74
2023/01/05 11:38:23;;;;;;;;;;;;;;;8.39;80.28;99916.61;1634059;85;21876;-73
2023/01/05 11:40:49;;;;;;;;;;;;;;;8.37;80.28;99923.08;1630448;85;20215;-74
2023/01/05 11:43:18;;;;;;;;;;;;;;;8.37;80.29;99927.38;1633407;85;20286;-73
2023/01/05 11:45:48;;;;;;;;;;;;;;;8.36;80.31;99921.82;1621919;86;20493;-73
2023/01/05 11:48:19;;;;;;;;;;;;;;;8.35;80.29;99933.84;1613641;87;20197;-73
2023/01/05 11:50:53;;;;;;;;;;;;;;;8.32;80.18;99924.04;1615914;86;21182;-73
2023/01/05 11:53:32;;;;;;;;;;;;;;;8.27;80.27;99938.28;1614982;86;20305;-74
2023/01/05 11:56:01;;;;;;;;;;;;;;;8.22;80.27;99935.79;1611378;86;20221;-73
2023/01/05 11:58:42;;;;;;;;;;;;;;;8.20;80.33;99949.57;1616801;86;20182;-73
2023/01/05 12:01:21;;;;;;;;;;;;;;;8.17;80.33;99949.62;1622237;86;20230;-73
2023/01/05 12:03:56;;;;;;;;;;;;;;;8.16;80.26;99951.78;1620719;87;21037;-73
2023/01/05 12:06:31;;;;;;;;;;;;;;;8.12;80.37;99950.13;1617119;86;20231;-73
2023/01/05 12:09:01;;;;;;;;;;;;;;;8.09;80.39;99961.33;1613233;87;20209;-73
2023/01/05 12:11:31;;;;;;;;;;;;;;;8.06;80.40;99954.94;1584920;88;20186;-74
2023/01/05 12:14:06;;;;;;;;;;;;;;;8.01;80.39;99955.45;1609418;88;20212;-73
2023/01/05 12:16:44;;;;;;;;;;;;;;;7.99;80.47;99953.34;1610290;88;21102;-73
2023/01/05 12:19:40;;;;;;;;;;;;;;;8.00;80.52;99950.33;1601602;87;20818;-73
2023/01/05 12:22:22;;;;;;;;;;;;;;;7.98;80.47;99954.22;1613035;86;20186;-73
2023/01/05 12:25:04;;;;;;;;;;;;;;;7.96;80.43;99955.53;1610638;87;20698;-73
2023/01/05 12:27:46;;;;;;;;;;;;;;;7.95;80.43;99952.54;1618917;86;20645;-73
2023/01/05 12:30:34;;;;;;;;;;;;;;;7.95;80.47;99955.55;1614314;87;22019;-73
2023/01/05 12:33:25;;;;;;;;;;;;;;;7.94;80.42;99952.56;1616678;86;20255;-73
2023/01/05 12:36:07;;;;;;;;;;;;;;;7.91;80.39;99961.19;1622259;85;20483;-73
2023/01/05 12:38:46;;;;;;;;;;;;;;;7.87;80.42;99954.38;1619137;86;20985;-73
2023/01/05 12:41:25;;;;;;;;;;;;;;;7.84;80.41;99960.86;1614667;86;20657;-73
2023/01/05 12:44:11;;;;;;;;;;;;;;;7.84;80.49;99961.30;1611399;86;21150;-73
2023/01/05 12:47:13;;;;;;;;;;;;;;;7.82;80.50;99973.34;1642344;85;20305;-73
2023/01/05 12:49:42;;;;;;;;;;;;;;;7.81;80.47;99974.22;1643951;84;20220;-73
2023/01/05 12:52:14;;;;;;;;;;;;;;;7.77;80.42;99976.02;1641721;86;20386;-74
2023/01/05 12:54:47;;;;;;;;;;;;;;;7.75;80.43;99970.48;1611194;87;20209;-73
2023/01/05 12:57:19;;;;;;;;;;;;;;;7.74;80.44;99982.93;1629373;85;20789;-73
2023/01/05 13:00:06;;;;;;;;;;;;;;;7.72;80.41;99980.38;1645067;84;20542;-75
2023/01/05 13:02:38;;;;;;;;;;;;;;;7.71;80.42;99986.40;1613004;86;20641;-75
2023/01/05 13:05:20;;;;;;;;;;;;;;;7.74;80.46;99978.64;1628892;85;20200;-75
2023/01/05 13:07:52;;;;;;;;;;;;;;;7.77;80.41;99985.46;1628928;85;20634;-75
2023/01/05 13:10:22;;;;;;;;;;;;;;;7.76;80.38;99993.62;1624729;85;21152;-75
2023/01/05 13:12:52;;;;;;;;;;;;;;;7.76;80.34;100011.63;1591900;86;20483;-75
2023/01/05 13:15:30;;;;;;;;;;;;;;;7.76;80.40;100020.64;1619261;86;20194;-75
2023/01/05 13:17:58;;;;;;;;;;;;;;;7.79;80.42;100013.31;1658274;84;20939;-77
2023/01/05 13:20:36;;;;;;;;;;;;;;;7.81;80.38;100026.98;1659425;85;20194;-74
2023/01/05 13:23:18;;;;;;;;;;;;;;;7.78;80.27;100031.77;1656488;85;21158;-74
2023/01/05 13:26:05;;;;;;;;;;;;;;;7.72;80.23;100035.70;1658609;84;20321;-75
2023/01/05 13:28:32;;;;;;;;;;;;;;;7.69;80.22;100053.77;1656095;84;20534;-75
2023/01/05 13:31:25;;;;;;;;;;;;;;;7.63;80.28;100058.55;1662836;84;20858;-75
2023/01/05 13:34:11;;;;;;;;;;;;;;;7.60;80.30;100070.61;1669233;84;20220;-75
2023/01/05 13:37:14;;;;;;;;;;;;;;;7.54;80.35;100087.40;1660175;84;21087;-74
2023/01/05 13:40:03;;;;;;;;;;;;;;;7.48;80.36;100115.77;1661294;84;20633;-74
2023/01/05 13:42:49;;;;;;;;;;;;;;;7.42;80.49;100123.12;1659574;84;20198;-75
2023/01/05 13:45:52;;;;;;;;;;;;;;;7.34;80.32;100145.49;1661813;84;20494;-74